Cache, Oklahoma
Current Conditions -  °F | °C
As of 9:53 PM on Friday 24 Oct 2014 (Local Time) from KLAW Reporting Station
Clear Clear  
Wind Chill: 72°   Ceiling: Unl
Heat Index: 72°   Visibility: 10mi
Dew Point: 59°   Wind: 6mph
Humidity: 64%   Direction: 150°SSE
Pressure: 30.05"   Gusts: NA
Location:  34.63°N, 98.63°W
Report Text: KLAW 250253Z AUTO 15005KT 10SM CLR 22/15 A3005 RMK AO2 SLP169 T02220150 51011
Loading
Personal Weather Stations






























Interactive Weather Map
Tropical Storm Tracking
New forecast layout! Learn more

10-Day Weather Forecast

Advertisements
Track Severe Weather on mobile